Time;durP1;ratioP1;P1;durP2;ratioP2;P2;SDS_P1;SDS_P2;PMS_P1;PMS_P2;Temp;Humidity;BMP_temperature;BMP_pressure;BME280_temperature;BME280_humidity;BME280_pressure;Samples;Min_cycle;Max_cycle;Signal;HPM_P1;HPM_P2
2022/04/28 00:00:30;;;;;;;7.15;4.65;;;20.90;36.60;;;;;;5040385;28;20461;-57
2022/04/28 00:02:58;;;;;;;4.30;4.00;;;20.90;36.70;;;;;;5039102;28;20052;-58
2022/04/28 00:05:25;;;;;;;5.80;5.05;;;20.90;36.70;;;;;;5022253;28;20126;-58
2022/04/28 00:07:53;;;;;;;8.32;5.07;;;20.90;36.70;;;;;;5038339;28;20631;-56
2022/04/28 00:10:20;;;;;;;6.30;5.72;;;20.80;36.70;;;;;;5038342;28;20189;-56
2022/04/28 00:12:49;;;;;;;6.22;4.47;;;20.80;36.70;;;;;;5042410;28;20736;-57
2022/04/28 00:15:16;;;;;;;5.47;4.38;;;20.70;36.90;;;;;;5042168;28;20116;-53
2022/04/28 00:17:43;;;;;;;4.50;4.10;;;20.70;36.90;;;;;;5040522;28;20506;-54
2022/04/28 00:20:11;;;;;;;6.68;4.05;;;20.70;36.90;;;;;;5040993;28;20549;-57
2022/04/28 00:22:38;;;;;;;4.95;4.55;;;20.70;36.90;;;;;;5038572;28;20051;-58
2022/04/28 00:25:06;;;;;;;4.38;4.00;;;20.70;37.50;;;;;;5039229;28;20340;-55
2022/04/28 00:27:33;;;;;;;6.15;4.53;;;20.60;36.90;;;;;;5038753;28;20120;-58
2022/04/28 00:30:01;;;;;;;5.20;4.45;;;20.60;37.00;;;;;;5040541;28;20462;-59
2022/04/28 00:32:29;;;;;;;4.85;4.43;;;20.60;37.00;;;;;;5038349;28;20044;-57
2022/04/28 00:34:56;;;;;;;9.43;6.03;;;20.50;37.00;;;;;;5038251;28;20555;-55
2022/04/28 00:37:23;;;;;;;7.45;5.80;;;20.50;37.00;;;;;;5038441;28;20528;-55
2022/04/28 00:39:51;;;;;;;12.00;5.35;;;20.50;37.10;;;;;;5040233;28;20073;-55
2022/04/28 00:42:19;;;;;;;8.50;4.85;;;20.40;37.10;;;;;;5024853;28;20041;-54
2022/04/28 00:44:47;;;;;;;5.60;4.68;;;20.40;37.10;;;;;;5038519;28;20560;-57
2022/04/28 00:47:15;;;;;;;6.65;6.07;;;20.40;37.10;;;;;;5023152;28;20040;-55
2022/04/28 00:52:29;;;;;;;9.27;6.18;;;20.30;37.30;;;;;;5036553;28;20116;-55
2022/04/28 00:54:57;;;;;;;5.85;5.05;;;20.30;37.30;;;;;;5040948;28;20056;-55
2022/04/28 00:57:25;;;;;;;7.00;4.75;;;20.30;37.30;;;;;;5041402;28;20049;-57
2022/04/28 00:59:52;;;;;;;5.45;5.03;;;20.30;37.30;;;;;;5022983;28;20116;-57
2022/04/28 01:02:21;;;;;;;12.43;5.22;;;20.20;37.30;;;;;;5022374;28;20080;-53
2022/04/28 01:04:48;;;;;;;7.47;4.97;;;20.20;37.40;;;;;;5035623;28;20048;-57
2022/04/28 01:07:17;;;;;;;8.90;5.00;;;20.20;37.50;;;;;;5038675;28;20071;-57
2022/04/28 01:09:44;;;;;;;5.50;5.00;;;20.20;37.60;;;;;;5023885;28;20414;-56
2022/04/28 01:12:16;;;;;;;7.85;5.35;;;20.10;37.60;;;;;;5036607;28;20095;-57
2022/04/28 01:14:48;;;;;;;7.65;5.60;;;20.20;37.70;;;;;;5022418;28;20053;-54
2022/04/28 01:17:15;;;;;;;9.73;5.47;;;20.10;37.60;;;;;;5041807;28;20045;-55
2022/04/28 01:19:49;;;;;;;7.75;5.38;;;20.10;37.70;;;;;;5023094;28;20041;-55
2022/04/28 01:22:18;;;;;;;5.82;5.28;;;20.10;37.70;;;;;;5041848;28;20139;-56
2022/04/28 01:24:45;;;;;;;7.85;4.93;;;20.10;37.70;;;;;;5022082;28;20060;-57
2022/04/28 01:27:14;;;;;;;5.90;5.30;;;20.00;37.70;;;;;;5041798;28;20038;-56
2022/04/28 01:29:42;;;;;;;6.13;5.45;;;20.00;37.80;;;;;;5038173;28;20045;-56
2022/04/28 01:32:09;;;;;;;11.27;6.95;;;20.00;37.80;;;;;;5023511;28;20111;-57
2022/04/28 01:34:41;;;;;;;8.00;5.60;;;20.00;37.80;;;;;;5019567;28;20469;-53
2022/04/28 01:37:08;;;;;;;5.60;5.10;;;20.00;37.90;;;;;;5022211;28;20580;-58
2022/04/28 01:39:37;;;;;;;7.38;5.07;;;20.00;37.90;;;;;;5018398;28;20605;-56
2022/04/28 01:42:05;;;;;;;7.20;5.40;;;19.90;38.00;;;;;;5022628;28;20190;-57
2022/04/28 01:44:33;;;;;;;8.73;6.07;;;19.90;38.00;;;;;;5013639;28;20041;-56
2022/04/28 01:47:00;;;;;;;10.20;6.07;;;19.90;38.00;;;;;;5023576;28;20084;-58
2022/04/28 01:49:49;;;;;;;6.25;5.22;;;19.90;38.00;;;;;;5022570;28;20143;-57
2022/04/28 01:55:39;;;;;;;5.18;4.65;;;19.80;38.10;;;;;;5041464;28;20307;-56
2022/04/28 01:58:36;;;;;;;6.72;4.80;;;19.80;38.30;;;;;;5026169;28;20477;-59
2022/04/28 02:01:29;;;;;;;7.25;5.10;;;19.70;38.30;;;;;;4963957;28;20046;-54
2022/04/28 02:03:56;;;;;;;8.40;4.97;;;19.70;38.30;;;;;;4931539;28;20059;-55
2022/04/28 02:06:25;;;;;;;9.43;5.93;;;19.70;38.40;;;;;;4926314;28;20393;-56
2022/04/28 02:08:53;;;;;;;7.50;5.50;;;19.70;38.40;;;;;;4964483;28;20141;-57
2022/04/28 02:11:23;;;;;;;7.57;5.13;;;19.70;38.40;;;;;;4967295;28;20935;-56
2022/04/28 02:14:08;;;;;;;6.57;5.63;;;19.70;38.50;;;;;;4969325;28;20042;-56
2022/04/28 02:17:10;;;;;;;8.35;4.93;;;19.70;38.40;;;;;;4969390;28;20046;-56
2022/04/28 02:19:38;;;;;;;7.20;5.43;;;19.60;38.40;;;;;;4969313;28;20046;-52
2022/04/28 02:22:05;;;;;;;9.18;5.45;;;19.60;38.40;;;;;;4947779;28;20479;-56
2022/04/28 02:24:37;;;;;;;7.18;5.78;;;19.60;38.50;;;;;;4949593;28;20062;-55
2022/04/28 02:27:06;;;;;;;5.97;4.88;;;19.60;38.60;;;;;;4951898;28;20129;-54
2022/04/28 02:29:33;;;;;;;7.15;5.43;;;19.50;38.60;;;;;;4970291;28;20610;-54
2022/04/28 02:32:00;;;;;;;12.20;5.20;;;19.50;38.70;;;;;;4954889;28;20582;-58
2022/04/28 02:34:28;;;;;;;6.53;4.40;;;19.50;38.70;;;;;;4948407;28;20051;-58
2022/04/28 02:36:56;;;;;;;17.58;5.13;;;19.50;38.70;;;;;;4969976;28;20191;-55
2022/04/28 02:39:23;;;;;;;5.68;5.00;;;19.50;38.80;;;;;;5018543;28;20056;-55
2022/04/28 02:41:53;;;;;;;11.05;5.10;;;19.50;38.90;;;;;;5026228;28;20122;-56
2022/04/28 02:44:21;;;;;;;6.40;5.80;;;19.50;38.90;;;;;;5026880;28;20524;-56
2022/04/28 02:46:49;;;;;;;7.45;5.07;;;19.40;38.80;;;;;;5026437;28;20041;-53
2022/04/28 02:49:20;;;;;;;6.45;5.55;;;19.40;38.80;;;;;;5026554;28;20161;-54
2022/04/28 02:51:48;;;;;;;7.75;5.95;;;19.40;38.80;;;;;;5044260;28;20060;-55
2022/04/28 02:54:15;;;;;;;5.03;4.28;;;19.30;38.80;;;;;;5043958;28;20127;-56
2022/04/28 02:56:48;;;;;;;8.13;4.45;;;19.40;38.80;;;;;;5044430;28;20076;-54
2022/04/28 02:59:15;;;;;;;6.05;4.07;;;19.40;38.90;;;;;;5018604;28;20045;-55
2022/04/28 03:01:43;;;;;;;7.93;4.85;;;19.40;39.00;;;;;;5024809;28;20433;-57
2022/04/28 03:04:11;;;;;;;5.47;4.90;;;19.30;39.00;;;;;;5025712;28;20045;-54
2022/04/28 03:12:15;;;;;;;9.93;5.65;;;19.20;39.10;;;;;;4969096;28;19962;-57
2022/04/28 03:14:52;;;;;;;8.45;5.85;;;19.20;39.40;;;;;;4965419;28;20511;-57
2022/04/28 03:17:21;;;;;;;6.95;3.97;;;19.20;39.30;;;;;;4965663;28;20114;-55
2022/04/28 03:19:49;;;;;;;5.45;4.75;;;19.20;39.20;;;;;;4950377;28;20129;-57
2022/04/28 03:22:16;;;;;;;6.63;4.57;;;19.20;39.20;;;;;;4965819;28;20054;-53
2022/04/28 03:24:43;;;;;;;6.18;4.75;;;19.20;39.20;;;;;;4984287;28;20046;-59
2022/04/28 03:27:10;;;;;;;7.38;5.07;;;19.20;39.30;;;;;;4979766;28;20087;-55
2022/04/28 03:29:38;;;;;;;8.10;5.18;;;19.20;39.50;;;;;;4971880;28;20133;-58
2022/04/28 03:32:08;;;;;;;5.97;4.80;;;19.20;39.60;;;;;;4980300;28;20058;-53
2022/04/28 03:34:49;;;;;;;7.05;5.68;;;19.20;39.60;;;;;;4951131;28;20344;-56
2022/04/28 03:37:16;;;;;;;6.57;5.13;;;19.20;39.60;;;;;;4964621;28;20161;-54
2022/04/28 03:39:45;;;;;;;8.07;4.22;;;19.20;39.70;;;;;;4966380;28;20907;-54
2022/04/28 03:42:12;;;;;;;6.32;5.13;;;19.20;39.70;;;;;;4951747;28;20078;-55
2022/04/28 03:44:40;;;;;;;6.75;4.40;;;19.20;39.70;;;;;;4963587;28;20042;-53
2022/04/28 03:47:08;;;;;;;6.57;4.57;;;19.20;39.70;;;;;;4965133;28;20088;-55
2022/04/28 03:49:35;;;;;;;5.68;4.43;;;19.20;39.70;;;;;;5011202;28;20063;-56
2022/04/28 03:52:07;;;;;;;7.10;4.32;;;19.20;39.80;;;;;;5022593;28;20777;-56
2022/04/28 03:54:34;;;;;;;5.13;4.63;;;19.20;39.70;;;;;;5027728;28;20041;-53
2022/04/28 03:57:02;;;;;;;6.32;5.18;;;19.30;39.80;;;;;;5025605;28;20588;-54
2022/04/28 03:59:30;;;;;;;8.60;4.20;;;19.40;39.80;;;;;;5025196;28;20115;-56
2022/04/28 04:02:01;;;;;;;11.07;4.78;;;19.30;39.50;;;;;;5039651;28;20076;-55
2022/04/28 04:04:28;;;;;;;10.13;5.57;;;19.30;39.40;;;;;;5025404;28;20037;-53
2022/04/28 04:06:59;;;;;;;6.78;4.65;;;19.30;39.50;;;;;;5014229;28;20146;-54
2022/04/28 04:09:48;;;;;;;7.45;5.03;;;19.20;39.40;;;;;;4980093;28;20058;-50
2022/04/28 04:12:20;;;;;;;7.55;5.10;;;19.20;39.50;;;;;;4967085;28;20132;-56
2022/04/28 04:15:13;;;;;;;6.90;4.63;;;19.10;39.40;;;;;;4941948;29;20054;-54
2022/04/28 04:18:06;;;;;;;6.35;4.30;;;19.10;39.50;;;;;;4940222;29;20591;-53
2022/04/28 04:20:39;;;;;;;10.25;4.97;;;19.10;39.60;;;;;;4938765;28;20074;-51
2022/04/28 04:23:07;;;;;;;9.65;5.13;;;19.10;39.60;;;;;;4939195;29;20068;-55
2022/04/28 04:25:35;;;;;;;8.90;5.07;;;19.10;39.60;;;;;;4936296;29;20146;-51
2022/04/28 04:28:08;;;;;;;7.95;4.95;;;19.10;39.70;;;;;;4938973;29;20055;-53
2022/04/28 04:34:02;;;;;;;10.27;6.38;;;19.00;39.60;;;;;;4939889;29;20464;-57
2022/04/28 04:36:29;;;;;;;8.10;5.93;;;19.00;39.70;;;;;;4939760;29;20043;-55
2022/04/28 04:38:57;;;;;;;4.75;4.32;;;19.10;39.70;;;;;;4941740;28;20075;-56
2022/04/28 04:41:26;;;;;;;6.40;5.53;;;19.10;39.70;;;;;;4938143;29;20469;-57
2022/04/28 04:43:53;;;;;;;7.05;5.47;;;19.00;39.60;;;;;;4933348;29;20122;-53
2022/04/28 04:46:21;;;;;;;7.07;5.78;;;19.00;39.70;;;;;;4944761;28;20047;-57
2022/04/28 04:49:18;;;;;;;9.10;6.38;;;19.10;39.80;;;;;;4941464;29;20054;-57
2022/04/28 04:51:48;;;;;;;6.05;4.85;;;19.00;39.80;;;;;;4957579;28;20057;-57
2022/04/28 04:54:20;;;;;;;7.43;5.13;;;19.00;39.80;;;;;;4978020;28;20566;-55
2022/04/28 04:56:51;;;;;;;7.30;5.47;;;19.10;39.80;;;;;;4998936;28;20112;-54
2022/04/28 04:59:18;;;;;;;8.68;5.93;;;19.00;39.80;;;;;;4979872;28;20073;-58
2022/04/28 05:01:45;;;;;;;8.50;6.05;;;19.00;39.80;;;;;;4988341;28;20058;-54
2022/04/28 05:04:31;;;;;;;6.93;6.22;;;19.00;39.80;;;;;;4993411;28;20055;-56
2022/04/28 05:07:19;;;;;;;10.23;6.25;;;19.00;39.80;;;;;;4978099;28;20046;-57
2022/04/28 05:09:48;;;;;;;9.20;5.18;;;18.90;39.90;;;;;;4979091;28;20069;-57
2022/04/28 05:12:16;;;;;;;8.48;5.72;;;19.00;40.00;;;;;;4975942;28;20484;-55
2022/04/28 05:15:03;;;;;;;6.97;4.65;;;19.00;40.00;;;;;;4996316;28;20042;-55
2022/04/28 05:17:37;;;;;;;7.80;5.93;;;19.00;40.00;;;;;;4995486;28;20239;-52
2022/04/28 05:20:27;;;;;;;6.88;4.05;;;19.00;39.90;;;;;;4981579;28;20446;-67
2022/04/28 05:23:33;;;;;;;6.03;4.22;;;19.10;40.40;;;;;;4934115;29;20043;-62
2022/04/28 05:26:32;;;;;;;8.13;5.10;;;19.40;41.00;;;;;;4946711;28;20062;-62
2022/04/28 05:29:10;;;;;;;7.32;5.70;;;19.70;40.80;;;;;;4934991;28;20574;-63
2022/04/28 05:31:55;;;;;;;8.27;4.72;;;20.00;40.30;;;;;;4954925;28;20055;-62
2022/04/28 05:34:50;;;;;;;13.07;6.93;;;20.30;39.70;;;;;;4938605;28;20570;-66
2022/04/28 05:37:20;;;;;;;8.23;6.03;;;20.60;39.20;;;;;;4955541;28;20167;-75
2022/04/28 05:39:47;;;;;;;9.43;5.95;;;20.70;38.80;;;;;;4943017;28;20055;-61
2022/04/28 05:42:15;;;;;;;15.05;5.32;;;20.90;38.60;;;;;;4950567;28;20138;-65
2022/04/28 05:47:29;;;;;;;8.88;6.20;;;21.20;38.20;;;;;;4953744;28;20051;-64
2022/04/28 05:49:57;;;;;;;11.45;6.88;;;21.30;37.90;;;;;;4942400;28;20436;-62
2022/04/28 05:52:25;;;;;;;6.80;5.05;;;21.50;37.70;;;;;;4940107;28;20122;-62
2022/04/28 05:54:53;;;;;;;10.23;5.20;;;21.50;37.40;;;;;;4997121;28;20775;-60
2022/04/28 05:57:20;;;;;;;9.25;5.50;;;21.70;37.30;;;;;;5027410;28;20500;-61
2022/04/28 05:59:50;;;;;;;6.07;5.13;;;21.80;37.00;;;;;;5026623;28;20059;-58
2022/04/28 06:02:41;;;;;;;12.77;6.78;;;22.00;36.70;;;;;;5033734;28;20063;-59
2022/04/28 06:05:13;;;;;;;8.48;5.53;;;22.20;36.30;;;;;;5027011;28;20033;-64
2022/04/28 06:07:40;;;;;;;11.07;5.55;;;22.40;35.90;;;;;;5045378;28;20140;-64
2022/04/28 06:10:09;;;;;;;7.50;5.85;;;22.50;35.40;;;;;;5024550;28;20037;-64
2022/04/28 06:12:36;;;;;;;7.45;6.32;;;22.70;35.10;;;;;;5045651;28;20505;-63
2022/04/28 06:15:13;;;;;;;8.15;5.93;;;22.80;34.80;;;;;;5045670;28;20124;-60
2022/04/28 06:17:46;;;;;;;10.02;7.28;;;23.00;35.00;;;;;;5014173;28;20049;-67
2022/04/28 06:20:13;;;;;;;9.13;5.95;;;23.00;34.70;;;;;;5015480;28;20041;-61
2022/04/28 06:22:59;;;;;;;10.60;6.05;;;23.10;34.20;;;;;;5027269;28;20049;-65
2022/04/28 06:25:31;;;;;;;7.78;6.32;;;23.30;34.00;;;;;;5026884;28;20059;-80
2022/04/28 06:27:59;;;;;;;9.85;6.60;;;23.40;33.90;;;;;;5020922;28;20544;-68
2022/04/28 06:30:27;;;;;;;10.55;7.18;;;23.50;33.70;;;;;;5032838;28;20832;-66
2022/04/28 06:33:04;;;;;;;7.40;6.68;;;23.60;33.60;;;;;;5026281;28;20060;-63
2022/04/28 06:35:45;;;;;;;10.77;7.63;;;23.70;33.30;;;;;;5022248;28;20052;-62
2022/04/28 06:38:14;;;;;;;9.30;6.57;;;23.70;33.10;;;;;;5024500;28;20042;-59
2022/04/28 06:40:41;;;;;;;6.78;5.90;;;23.80;33.00;;;;;;5025325;28;20056;-58
2022/04/28 06:43:09;;;;;;;8.77;6.57;;;23.90;33.60;;;;;;5024689;28;20819;-60
2022/04/28 06:46:15;;;;;;;6.88;6.28;;;23.90;32.90;;;;;;5042819;28;20733;-53
2022/04/28 06:49:01;;;;;;;10.57;5.97;;;24.10;32.70;;;;;;5044314;28;20045;-62
2022/04/28 06:51:53;;;;;;;6.82;6.10;;;24.10;32.60;;;;;;5044567;28;20085;-55
2022/04/28 06:54:40;;;;;;;14.43;7.15;;;24.20;32.50;;;;;;5046173;28;20047;-55
2022/04/28 06:57:07;;;;;;;10.55;5.18;;;24.20;32.30;;;;;;5010468;28;20692;-69
2022/04/28 06:59:38;;;;;;;14.05;6.75;;;24.40;32.30;;;;;;5018256;28;20041;-62
2022/04/28 07:02:09;;;;;;;12.63;7.63;;;24.40;32.10;;;;;;5026223;28;20052;-54
2022/04/28 07:04:38;;;;;;;12.27;6.22;;;24.40;32.00;;;;;;5021183;28;20052;-62
2022/04/28 07:07:05;;;;;;;7.70;6.38;;;24.50;31.90;;;;;;5041461;28;20056;-59
2022/04/28 07:09:32;;;;;;;9.40;6.07;;;24.60;31.90;;;;;;5028218;28;20048;-60
2022/04/28 07:12:00;;;;;;;9.07;6.25;;;24.60;31.80;;;;;;5026353;28;20044;-60
2022/04/28 07:14:47;;;;;;;7.57;5.82;;;24.60;31.80;;;;;;4963167;28;20055;-63
2022/04/28 07:17:34;;;;;;;9.93;6.30;;;24.70;31.80;;;;;;4962935;28;20059;-61
2022/04/28 07:20:03;;;;;;;10.75;7.03;;;24.70;31.70;;;;;;4949120;28;20302;-59
2022/04/28 07:22:31;;;;;;;8.35;5.97;;;24.80;31.70;;;;;;4961757;28;20137;-55
2022/04/28 07:24:58;;;;;;;12.27;6.05;;;24.90;31.60;;;;;;4947089;28;20070;-61
2022/04/28 07:27:25;;;;;;;9.40;6.53;;;24.90;31.40;;;;;;4962486;28;20053;-63
2022/04/28 07:29:59;;;;;;;8.52;5.43;;;24.90;31.20;;;;;;4942469;28;20575;-63
2022/04/28 07:32:40;;;;;;;10.15;6.95;;;25.00;31.20;;;;;;4944896;28;20520;-55
2022/04/28 07:35:17;;;;;;;12.18;6.97;;;25.00;31.10;;;;;;4963106;28;20086;-48
2022/04/28 07:38:17;;;;;;;10.18;6.43;;;25.10;31.30;;;;;;4908706;29;20083;-55
2022/04/28 07:40:55;;;;;;;9.52;6.85;;;25.10;31.30;;;;;;4890107;29;20100;-56
2022/04/28 07:43:25;;;;;;;7.60;6.15;;;25.10;31.10;;;;;;4891667;29;20055;-50
2022/04/28 07:45:53;;;;;;;14.93;7.30;;;25.20;31.20;;;;;;4894436;29;20124;-63
2022/04/28 07:48:22;;;;;;;10.45;6.82;;;25.20;31.10;;;;;;4895922;29;20099;-72
2022/04/28 07:50:50;;;;;;;8.68;6.25;;;25.20;31.00;;;;;;4897335;29;20078;-62
2022/04/28 07:53:22;;;;;;;7.30;5.72;;;25.20;31.00;;;;;;4978662;28;20140;-59
2022/04/28 07:58:32;;;;;;;8.48;6.40;;;25.10;31.00;;;;;;4970576;28;20079;-61
2022/04/28 08:01:18;;;;;;;;;;;25.10;31.10;;;;;;4988948;28;20084;-52
2022/04/28 08:03:47;;;;;;;7.05;6.40;;;25.00;31.00;;;;;;4967812;28;19925;-65
2022/04/28 08:06:15;;;;;;;8.68;7.50;;;25.00;31.10;;;;;;4969792;28;20467;-67
2022/04/28 08:08:43;;;;;;;6.32;5.57;;;25.00;31.00;;;;;;4970595;28;20089;-66
2022/04/28 08:11:10;;;;;;;12.50;6.18;;;25.00;30.90;;;;;;4969552;28;20042;-60
2022/04/28 08:13:38;;;;;;;6.65;6.05;;;25.00;31.00;;;;;;5006741;28;20473;-61
2022/04/28 08:16:17;;;;;;;8.43;6.07;;;25.00;31.00;;;;;;5026730;28;20036;-55
2022/04/28 08:18:49;;;;;;;13.48;6.32;;;24.90;31.10;;;;;;5032759;28;20044;-66
2022/04/28 08:21:32;;;;;;;10.25;5.90;;;25.00;31.20;;;;;;5029458;28;20124;-60
2022/04/28 08:23:59;;;;;;;9.88;5.20;;;25.00;31.20;;;;;;5027718;28;20072;-60
2022/04/28 08:26:26;;;;;;;9.48;5.15;;;25.00;31.20;;;;;;5028488;28;20555;-53
2022/04/28 08:28:56;;;;;;;11.38;6.20;;;25.10;31.90;;;;;;5043687;28;20053;-67
2022/04/28 08:31:23;;;;;;;8.95;5.63;;;25.20;31.30;;;;;;5030240;28;20127;-64
2022/04/28 08:33:53;;;;;;;7.70;5.38;;;25.30;31.30;;;;;;5033874;28;20045;-68
2022/04/28 08:36:21;;;;;;;18.90;4.88;;;25.30;31.40;;;;;;5018103;28;20053;-67
2022/04/28 08:38:53;;;;;;;6.28;4.72;;;25.40;31.30;;;;;;5033680;28;20572;-68
2022/04/28 08:41:30;;;;;;;6.07;5.00;;;25.40;31.30;;;;;;5034236;28;20969;-65
2022/04/28 08:44:18;;;;;;;6.65;3.75;;;25.50;31.20;;;;;;5049622;28;20045;-67
2022/04/28 08:46:52;;;;;;;14.23;5.18;;;25.60;31.30;;;;;;5054230;28;20132;-72
2022/04/28 08:49:24;;;;;;;5.53;5.00;;;25.60;31.20;;;;;;5029981;28;20047;-69
2022/04/28 08:52:04;;;;;;;4.97;4.10;;;25.70;31.20;;;;;;5038170;28;20047;-70
2022/04/28 08:54:36;;;;;;;3.80;3.28;;;25.70;31.10;;;;;;5037177;28;20037;-70
2022/04/28 08:57:04;;;;;;;5.80;4.82;;;25.80;31.00;;;;;;5036619;28;20135;-70
2022/04/28 08:59:33;;;;;;;7.82;3.70;;;25.80;30.90;;;;;;5030674;28;20107;-56
2022/04/28 09:02:00;;;;;;;5.40;4.28;;;25.90;30.90;;;;;;5030625;28;20053;-51
2022/04/28 09:04:47;;;;;;;;;;;25.90;30.80;;;;;;5042203;28;20160;-58
2022/04/28 09:07:35;;;;;;;7.85;4.18;;;26.00;30.90;;;;;;5049876;28;20468;-59
2022/04/28 09:10:33;;;;;;;4.00;3.65;;;25.90;30.80;;;;;;4982558;28;20058;-58
2022/04/28 09:16:24;;;;;;;2.80;2.60;;;26.10;30.60;;;;;;4907709;29;20056;-49
2022/04/28 09:18:54;;;;;;;3.92;2.50;;;26.10;30.50;;;;;;4885495;29;20059;-60
2022/04/28 09:21:24;;;;;;;9.48;3.13;;;26.10;30.60;;;;;;4898004;29;20056;-61
2022/04/28 09:23:53;;;;;;;3.08;2.75;;;26.30;30.60;;;;;;4909146;29;20052;-67
2022/04/28 09:26:24;;;;;;;3.58;2.40;;;26.20;30.40;;;;;;4909509;29;20052;-55
2022/04/28 09:28:53;;;;;;;6.50;2.13;;;26.30;30.40;;;;;;4906312;29;20363;-58
2022/04/28 09:31:23;;;;;;;7.43;2.65;;;26.40;30.30;;;;;;4886423;29;20145;-60
2022/04/28 09:34:17;;;;;;;2.70;2.15;;;26.40;30.20;;;;;;4911603;29;20056;-62
2022/04/28 09:37:05;;;;;;;2.75;2.55;;;26.40;30.10;;;;;;4913626;29;20048;-59
2022/04/28 09:42:35;;;;;;;3.38;1.88;;;26.50;30.00;;;;;;4912833;29;20112;-61
2022/04/28 09:45:12;;;;;;;3.03;2.83;;;26.50;29.90;;;;;;4887690;29;20095;-67
2022/04/28 09:47:42;;;;;;;4.63;2.63;;;26.50;29.90;;;;;;4936053;28;20051;-63
2022/04/28 09:50:14;;;;;;;3.97;2.78;;;26.50;29.90;;;;;;4972213;28;20045;-61
2022/04/28 09:53:04;;;;;;;2.60;1.55;;;26.50;29.90;;;;;;5026618;28;20111;-55
2022/04/28 09:56:00;;;;;;;4.43;1.90;;;26.50;29.90;;;;;;4967266;28;20185;-53
2022/04/28 09:58:34;;;;;;;1.98;1.65;;;26.50;29.80;;;;;;4964172;28;20038;-68
2022/04/28 10:01:03;;;;;;;2.50;2.30;;;26.50;29.80;;;;;;4964068;28;20126;-61
2022/04/28 10:03:34;;;;;;;2.00;1.90;;;26.60;29.80;;;;;;4962919;28;20046;-67
2022/04/28 10:06:05;;;;;;;4.10;1.35;;;26.70;29.70;;;;;;4966115;28;20051;-65
2022/04/28 10:08:51;;;;;;;1.83;1.73;;;26.70;29.60;;;;;;4980559;28;20106;-72
2022/04/28 10:11:23;;;;;;;1.52;1.42;;;26.80;29.60;;;;;;4990326;28;20046;-71
2022/04/28 10:13:52;;;;;;;2.97;1.63;;;26.80;29.40;;;;;;4966667;28;20065;-67
2022/04/28 10:16:22;;;;;;;2.60;1.35;;;26.80;29.30;;;;;;4961554;28;20053;-66
2022/04/28 10:18:54;;;;;;;1.75;0.82;;;26.90;29.30;;;;;;4965898;28;20527;-65
2022/04/28 10:21:26;;;;;;;0.93;0.93;;;26.90;29.20;;;;;;4958787;28;20058;-61
2022/04/28 10:32:56;;;;;;;1.70;1.20;;;27.00;29.00;;;;;;4997905;28;20056;-66
2022/04/28 10:35:34;;;;;;;3.33;0.75;;;27.00;29.00;;;;;;5049114;28;20056;-54
2022/04/28 10:38:14;;;;;;;9.73;0.95;;;27.10;29.50;;;;;;5046723;28;20044;-62
2022/04/28 10:40:44;;;;;;;2.70;0.50;;;27.10;29.70;;;;;;5048471;28;20048;-62
2022/04/28 10:43:24;;;;;;;3.70;1.00;;;27.10;29.90;;;;;;5048427;28;20041;-61
2022/04/28 10:45:53;;;;;;;11.23;0.73;;;27.20;30.00;;;;;;5040664;28;20045;-61
2022/04/28 10:48:29;;;;;;;2.03;0.57;;;27.20;30.00;;;;;;5043027;28;20044;-63
2022/04/28 10:51:10;;;;;;;1.30;0.60;;;27.20;30.00;;;;;;5041125;28;20835;-61
2022/04/28 10:54:03;;;;;;;4.95;0.43;;;27.30;30.10;;;;;;5045786;28;20049;-61
2022/04/28 10:56:56;;;;;;;1.10;0.52;;;27.40;30.20;;;;;;5040491;28;20037;-59
2022/04/28 10:59:40;;;;;;;1.45;0.30;;;27.40;30.20;;;;;;5044477;28;20730;-61
2022/04/28 11:02:49;;;;;;;0.40;0.30;;;27.40;30.40;;;;;;5019287;28;20072;-63
2022/04/28 11:05:37;;;;;;;1.02;0.30;;;27.50;30.70;;;;;;5022593;28;20048;-63
2022/04/28 11:08:05;;;;;;;0.52;0.30;;;27.50;30.60;;;;;;5038110;28;20094;-61
2022/04/28 11:10:32;;;;;;;0.55;0.30;;;27.50;30.60;;;;;;5039408;28;20095;-62
2022/04/28 11:13:10;;;;;;;2.85;0.20;;;27.60;30.60;;;;;;5041261;28;20403;-62
2022/04/28 11:15:38;;;;;;;0.40;0.30;;;27.60;30.60;;;;;;5039451;28;20169;-61
2022/04/28 11:18:05;;;;;;;3.47;0.45;;;27.60;30.60;;;;;;5019688;28;20094;-60
2022/04/28 11:20:34;;;;;;;0.45;0.20;;;27.70;30.70;;;;;;5036425;28;20175;-61
2022/04/28 11:23:04;;;;;;;1.20;0.30;;;27.70;30.70;;;;;;5019377;28;20048;-60
2022/04/28 11:25:32;;;;;;;5.53;0.20;;;27.80;30.70;;;;;;5039911;28;20049;-61
2022/04/28 11:28:01;;;;;;;1.17;0.35;;;27.80;30.70;;;;;;5025413;28;20041;-61
2022/04/28 11:30:30;;;;;;;0.35;0.20;;;27.90;30.80;;;;;;5020757;28;20056;-60
2022/04/28 11:32:59;;;;;;;2.08;0.28;;;27.90;30.80;;;;;;5039455;28;20044;-60
2022/04/28 11:35:31;;;;;;;0.30;0.30;;;27.90;30.70;;;;;;5042496;28;20041;-60
2022/04/28 11:37:59;;;;;;;0.45;0.30;;;28.00;30.80;;;;;;5040372;28;20041;-60
2022/04/28 11:40:26;;;;;;;0.47;0.38;;;28.00;30.80;;;;;;5038472;28;20071;-61
2022/04/28 11:42:57;;;;;;;0.55;0.50;;;28.00;30.60;;;;;;5037901;28;20513;-60
2022/04/28 11:45:25;;;;;;;4.13;0.55;;;28.00;30.60;;;;;;5040312;28;20163;-61
2022/04/28 11:47:56;;;;;;;0.20;0.20;;;28.10;30.60;;;;;;5040070;28;20119;-60
2022/04/28 11:50:26;;;;;;;0.77;0.30;;;28.10;30.60;;;;;;5036700;28;20068;-59
2022/04/28 11:53:01;;;;;;;1.63;0.22;;;28.10;30.60;;;;;;5036665;28;20045;-60
2022/04/28 11:55:30;;;;;;;0.30;0.10;;;28.20;30.60;;;;;;5037855;28;20065;-59
2022/04/28 11:57:58;;;;;;;4.97;0.50;;;28.20;30.60;;;;;;5038434;28;20044;-54
2022/04/28 12:00:26;;;;;;;2.35;0.15;;;28.20;30.60;;;;;;5040773;28;20065;-56
2022/04/28 12:02:55;;;;;;;0.20;0.15;;;28.20;30.60;;;;;;5039785;28;20103;-53
2022/04/28 12:05:25;;;;;;;0.50;0.20;;;28.20;30.60;;;;;;5039279;28;20039;-63
2022/04/28 12:07:54;;;;;;;1.17;0.13;;;28.30;30.60;;;;;;5040850;28;20572;-59
2022/04/28 12:15:59;;;;;;;2.63;0.35;;;28.30;30.80;;;;;;5037642;28;20091;-60
2022/04/28 12:21:21;;;;;;;1.05;0.20;;;28.30;30.80;;;;;;5044773;28;20052;-61
2022/04/28 12:23:50;;;;;;;1.95;0.20;;;28.40;31.50;;;;;;5037851;28;20090;-61
2022/04/28 12:26:20;;;;;;;2.30;0.20;;;28.40;30.90;;;;;;5043324;28;20069;-50
2022/04/28 12:28:48;;;;;;;2.95;0.15;;;28.40;30.80;;;;;;5042846;28;20045;-54
2022/04/28 12:31:25;;;;;;;0.75;0.10;;;28.50;30.80;;;;;;5042312;28;20040;-57
2022/04/28 12:33:55;;;;;;;2.58;0.20;;;28.50;30.80;;;;;;5037033;28;20053;-59
2022/04/28 12:36:22;;;;;;;1.05;0.40;;;28.50;31.40;;;;;;5042310;28;20086;-55
2022/04/28 12:38:51;;;;;;;0.15;0.10;;;28.60;30.90;;;;;;5042678;28;20758;-55
2022/04/28 12:41:21;;;;;;;1.17;0.17;;;28.60;31.50;;;;;;5023419;28;20079;-53
2022/04/28 12:43:50;;;;;;;0.88;0.20;;;28.60;31.50;;;;;;5042300;28;20053;-51
2022/04/28 12:46:21;;;;;;;1.83;0.10;;;28.60;30.90;;;;;;5042576;28;20484;-48
2022/04/28 12:48:55;;;;;;;3.33;0.10;;;28.70;31.50;;;;;;5043830;28;20048;-60
2022/04/28 12:51:23;;;;;;;0.50;0.10;;;28.70;30.90;;;;;;5025613;28;20049;-58
2022/04/28 12:53:52;;;;;;;0.98;0.20;;;28.70;30.90;;;;;;5041657;28;20060;-60
2022/04/28 12:56:28;;;;;;;0.30;0.20;;;28.70;31.00;;;;;;5042852;28;20037;-49
2022/04/28 12:58:57;;;;;;;2.63;0.20;;;28.80;31.00;;;;;;5041892;28;20041;-48
2022/04/28 13:01:25;;;;;;;1.75;0.10;;;28.80;31.00;;;;;;5041237;28;20048;-45
2022/04/28 13:03:56;;;;;;;3.10;0.10;;;28.80;31.00;;;;;;5039378;28;20164;-50
2022/04/28 13:06:25;;;;;;;0.13;0.10;;;28.90;31.10;;;;;;5025145;28;20037;-51
2022/04/28 13:08:53;;;;;;;0.10;0.10;;;28.90;31.10;;;;;;5020748;28;20077;-52
2022/04/28 13:11:22;;;;;;;0.10;0.10;;;28.90;31.00;;;;;;5036820;28;20498;-58
2022/04/28 13:13:51;;;;;;;1.23;0.20;;;29.00;31.10;;;;;;5041855;28;20052;-59
2022/04/28 13:16:18;;;;;;;0.20;0.10;;;29.00;31.10;;;;;;5034754;28;20041;-59
2022/04/28 13:18:46;;;;;;;1.20;0.20;;;29.10;31.10;;;;;;5037691;28;20056;-67
2022/04/28 13:21:15;;;;;;;3.15;0.20;;;29.00;31.10;;;;;;5041352;28;20044;-66
2022/04/28 13:23:43;;;;;;;0.13;0.13;;;29.10;31.20;;;;;;5039655;28;20045;-66
2022/04/28 13:26:13;;;;;;;1.65;0.40;;;29.10;31.20;;;;;;5042509;28;20500;-66
2022/04/28 13:28:41;;;;;;;0.60;0.10;;;29.20;31.20;;;;;;5036935;28;20099;-67
2022/04/28 13:31:08;;;;;;;0.30;0.10;;;29.20;31.10;;;;;;5038637;28;20144;-65
2022/04/28 13:33:37;;;;;;;2.05;0.10;;;29.20;31.00;;;;;;5038946;28;20160;-58
2022/04/28 13:36:05;;;;;;;0.40;0.20;;;29.20;31.10;;;;;;5042061;28;20037;-74
2022/04/28 13:38:35;;;;;;;0.38;0.10;;;29.20;31.10;;;;;;5035146;28;20049;-60
2022/04/28 13:41:03;;;;;;;0.10;0.10;;;29.20;31.00;;;;;;5037521;28;20060;-61
2022/04/28 13:43:31;;;;;;;4.00;0.10;;;29.20;31.00;;;;;;5039531;28;20044;-61
2022/04/28 13:46:00;;;;;;;0.10;0.10;;;29.20;31.00;;;;;;5039897;28;20075;-60
2022/04/28 13:48:28;;;;;;;2.33;0.10;;;29.30;31.10;;;;;;5039745;28;20502;-61
2022/04/28 13:50:55;;;;;;;1.85;0.10;;;29.30;31.10;;;;;;5040978;28;20144;-61
2022/04/28 13:53:27;;;;;;;0.20;0.10;;;29.30;31.10;;;;;;5041432;28;20069;-61
2022/04/28 13:55:56;;;;;;;0.10;0.10;;;29.30;31.10;;;;;;5041755;28;20820;-60